PWSweather.com
Personal Weather Stations
Station Observations
REUBENS
Camas Prairie, Reubens, ID 83548

Camas PrairieReubens, ID 83548

Lat: 46.35417, Lon: -116.53167

Elevation: 3480

Station Type: Davis VantagePro 2

http://www.theobrienranch.com/wx/wx.htm

Latest ConditionsUpdated 5:15:01 PM PDT Friday, May 24, 2019
Currently Today's Max Today's Min Today's Average
Temperature 54.5°F12.5°C 55.6°F13.1°C 48.3°F9.1°C 51.5°F10.8°C
Dew Point 46.0°F7.8°C 48.4°F9.1°C 36.3°F2.4°C 43.2°F6.2°C
Winds Calm Calm 12.7 mph -20.4 kmh - - 5.3 mph 8.5 kmh
Wind Gusts 1.2 mph1.9 kmh 19.6 mph31.5 kmh - -
Humidity 73% 93% 50% 75%
Pressure 29.87 in1011.5 mb 29.92 in1013.2 mb 29.80 in1009.1 mb -
Precipitation - 0.33 in8.4 mm - -
Hour Temp Dew Point Humidity Winds Wind Gusts Pressure Precip Precip Rate Daily Precip Total
05:15 PM 54.5°F12.5°C 46.0°F7.8°C 73% Calm Calm 1.2 mph1.9 kmh 29.87 in1011.5 mb - 0.00 in0.0 mm 0.33 in8.4 mm
05:00 PM 53.3°F11.8°C 44.1°F6.7°C 71% 3.5 mph SW5.6 kmh SW 3.5 mph5.6 kmh 29.88 in1011.9 mb - 0.00 in0.0 mm 0.33 in8.4 mm
04:45 PM 52.8°F11.6°C 45.4°F7.4°C 76% 5.8 mph SW9.3 kmh SW 8.1 mph13.0 kmh 29.88 in1011.9 mb - 0.00 in0.0 mm 0.33 in8.4 mm
04:30 PM 52.4°F11.3°C 45.4°F7.4°C 77% 5.8 mph SW9.3 kmh SW 10.4 mph16.7 kmh 29.89 in1012.2 mb - 0.00 in0.0 mm 0.33 in8.4 mm
04:15 PM 51.9°F11.1°C 45.3°F7.4°C 78% 8.1 mph SW13.0 kmh SW 10.4 mph16.7 kmh 29.89 in1012.2 mb - 0.00 in0.0 mm 0.33 in8.4 mm
04:00 PM 51.1°F10.6°C 44.8°F7.1°C 79% 6.9 mph SSW11.1 kmh SSW 10.4 mph16.7 kmh 29.89 in1012.2 mb - 0.00 in0.0 mm 0.33 in8.4 mm
03:45 PM 50.6°F10.3°C 45.6°F7.6°C 83% 8.1 mph SSW13.0 kmh SSW 10.4 mph16.7 kmh 29.89 in1012.2 mb - 0.01 in0.3 mm 0.33 in8.4 mm
03:30 PM 50.7°F10.4°C 46.6°F8.1°C 86% 8.1 mph SSW13.0 kmh SSW 10.4 mph16.7 kmh 29.90 in1012.5 mb - 0.01 in0.3 mm 0.33 in8.4 mm
03:15 PM 51.4°F10.8°C 47.6°F8.7°C 87% 9.2 mph SSW14.8 kmh SSW 11.5 mph18.5 kmh 29.90 in1012.5 mb - 0.01 in0.3 mm 0.33 in8.4 mm
03:00 PM 50.5°F10.3°C 46.8°F8.2°C 87% 3.5 mph SW5.6 kmh SW 5.8 mph9.3 kmh 29.90 in1012.5 mb - 0.01 in0.3 mm 0.33 in8.4 mm
02:45 PM 50.3°F10.2°C 46.9°F8.3°C 88% 3.5 mph SW5.6 kmh SW 4.6 mph7.4 kmh 29.91 in1012.9 mb - 0.00 in0.0 mm 0.32 in8.1 mm
02:30 PM 50.4°F10.2°C 45.8°F7.7°C 84% 5.8 mph SW9.3 kmh SW 5.8 mph9.3 kmh 29.90 in1012.5 mb - 0.00 in0.0 mm 0.32 in8.1 mm
02:15 PM 51.6°F10.9°C 47.6°F8.7°C 86% 3.5 mph W5.6 kmh W 8.1 mph13.0 kmh 29.90 in1012.5 mb - 0.00 in0.0 mm 0.32 in8.1 mm
02:00 PM 50.9°F10.5°C 47.8°F8.8°C 89% 2.3 mph WSW3.7 kmh WSW 2.3 mph3.7 kmh 29.89 in1012.2 mb - 0.00 in0.0 mm 0.32 in8.1 mm
01:45 PM 50.4°F10.2°C 47.0°F8.3°C 88% 4.6 mph WSW7.4 kmh WSW 4.6 mph7.4 kmh 29.91 in1012.9 mb - 0.01 in0.3 mm 0.32 in8.1 mm
01:30 PM 50.3°F10.2°C 48.3°F9.1°C 93% 1.2 mph W1.9 kmh W 3.5 mph5.6 kmh 29.91 in1012.9 mb - 0.02 in0.5 mm 0.32 in8.1 mm
01:15 PM 49.7°F9.8°C 47.8°F8.8°C 93% 2.3 mph WNW3.7 kmh WNW 3.5 mph5.6 kmh 29.91 in1012.9 mb - 0.04 in1.0 mm 0.32 in8.1 mm
01:00 PM 49.2°F9.6°C 46.9°F8.3°C 92% 5.8 mph WSW9.3 kmh WSW 9.2 mph14.8 kmh 29.92 in1013.2 mb - 0.05 in1.3 mm 0.32 in8.1 mm
12:45 PM 48.9°F9.4°C 47.0°F8.3°C 93% 9.2 mph WSW14.8 kmh WSW 11.5 mph18.5 kmh 29.92 in1013.2 mb - 0.04 in1.0 mm 0.31 in7.9 mm
12:30 PM 48.9°F9.4°C 46.7°F8.2°C 92% 4.6 mph W7.4 kmh W 8.1 mph13.0 kmh 29.92 in1013.2 mb - 0.03 in0.8 mm 0.30 in7.6 mm
12:15 PM 49.7°F9.8°C 46.6°F8.1°C 89% 12.7 mph WSW20.4 kmh WSW 19.6 mph31.5 kmh 29.91 in1012.9 mb - 0.04 in1.0 mm 0.28 in7.1 mm
12:00 PM 48.7°F9.3°C 46.8°F8.2°C 93% 4.6 mph NE7.4 kmh NE 5.8 mph9.3 kmh 29.91 in1012.9 mb - 0.10 in2.5 mm 0.27 in6.9 mm
11:45 AM 49.3°F9.6°C 46.8°F8.2°C 91% 3.5 mph W5.6 kmh W 3.5 mph5.6 kmh 29.91 in1012.9 mb - 0.12 in3.0 mm 0.27 in6.9 mm
11:30 AM 49.3°F9.6°C 47.4°F8.6°C 93% 6.9 mph E11.1 kmh E 10.4 mph16.7 kmh 29.91 in1012.9 mb - 0.12 in3.0 mm 0.27 in6.9 mm
11:15 AM 49.7°F9.8°C 47.4°F8.6°C 92% 3.5 mph NE5.6 kmh NE 8.1 mph13.0 kmh 29.90 in1012.5 mb - 0.10 in2.5 mm 0.25 in6.4 mm
11:00 AM 50.4°F10.2°C 47.8°F8.8°C 91% 6.9 mph E11.1 kmh E 6.9 mph11.1 kmh 29.87 in1011.5 mb - 0.03 in0.8 mm 0.17 in4.3 mm
10:45 AM 51.2°F10.7°C 48.4°F9.1°C 90% 6.9 mph ESE11.1 kmh ESE 9.2 mph14.8 kmh 29.87 in1011.5 mb - 0.01 in0.3 mm 0.15 in3.8 mm
10:30 AM 50.7°F10.4°C 47.6°F8.7°C 89% 5.8 mph SE9.3 kmh SE 6.9 mph11.1 kmh 29.88 in1011.9 mb - 0.01 in0.3 mm 0.15 in3.8 mm
10:15 AM 49.9°F9.9°C 46.7°F8.2°C 89% 5.8 mph ESE9.3 kmh ESE 6.9 mph11.1 kmh 29.88 in1011.9 mb - 0.10 in2.5 mm 0.15 in3.8 mm
10:00 AM 48.9°F9.4°C 45.8°F7.7°C 89% 5.8 mph E9.3 kmh E 6.9 mph11.1 kmh 29.90 in1012.5 mb - 0.11 in2.8 mm 0.14 in3.6 mm
09:45 AM 48.4°F9.1°C 45.3°F7.4°C 89% 8.1 mph ESE13.0 kmh ESE 10.4 mph16.7 kmh 29.89 in1012.2 mb - 0.11 in2.8 mm 0.14 in3.6 mm
09:30 AM 48.3°F9.1°C 44.0°F6.7°C 85% 3.5 mph E5.6 kmh E 3.5 mph5.6 kmh 29.90 in1012.5 mb - 0.12 in3.0 mm 0.14 in3.6 mm
09:15 AM 48.7°F9.3°C 44.7°F7.1°C 86% 1.2 mph ENE1.9 kmh ENE 2.3 mph3.7 kmh 29.92 in1013.2 mb - 0.04 in1.0 mm 0.05 in1.3 mm
09:00 AM 49.1°F9.5°C 44.8°F7.1°C 85% 3.5 mph E5.6 kmh E 3.5 mph5.6 kmh 29.90 in1012.5 mb - 0.02 in0.5 mm 0.03 in0.8 mm
08:45 AM 49.2°F9.6°C 44.6°F7.0°C 84% 5.8 mph E9.3 kmh E 5.8 mph9.3 kmh 29.90 in1012.5 mb - 0.02 in0.5 mm 0.03 in0.8 mm
08:30 AM 50.0°F10.0°C 44.4°F6.9°C 81% 4.6 mph ESE7.4 kmh ESE 4.6 mph7.4 kmh 29.89 in1012.2 mb - 0.01 in0.3 mm 0.02 in0.5 mm
08:15 AM 50.2°F10.1°C 44.9°F7.2°C 82% Calm Calm -- 29.89 in1012.2 mb - 0.00 in0.0 mm 0.01 in0.3 mm
08:00 AM 49.7°F9.8°C 44.1°F6.7°C 81% 3.5 mph E5.6 kmh E 3.5 mph5.6 kmh 29.88 in1011.9 mb - 0.01 in0.3 mm 0.01 in0.3 mm
07:45 AM 50.0°F10.0°C 44.1°F6.7°C 80% 5.8 mph E9.3 kmh E 6.9 mph11.1 kmh 29.87 in1011.5 mb - 0.01 in0.3 mm 0.01 in0.3 mm
07:30 AM 50.2°F10.1°C 44.6°F7.0°C 81% 3.5 mph E5.6 kmh E 4.6 mph7.4 kmh 29.87 in1011.5 mb - 0.01 in0.3 mm 0.01 in0.3 mm
07:15 AM 50.2°F10.1°C 44.6°F7.0°C 81% 5.8 mph NE9.3 kmh NE 8.1 mph13.0 kmh 29.86 in1011.2 mb - 0.01 in0.3 mm 0.01 in0.3 mm
07:00 AM 51.6°F10.9°C 44.3°F6.8°C 76% 1.2 mph WNW1.9 kmh WNW 3.5 mph5.6 kmh 29.85 in1010.8 mb - 0.00 in0.0 mm 0.00 in0.0 mm
06:45 AM 52.2°F11.2°C 43.8°F6.6°C 73% 1.2 mph WNW1.9 kmh WNW 1.2 mph1.9 kmh 29.84 in1010.5 mb - 0.00 in0.0 mm 0.00 in0.0 mm
06:30 AM 54.6°F12.6°C 43.9°F6.6°C 67% 1.2 mph WSW1.9 kmh WSW 2.3 mph3.7 kmh 29.82 in1009.8 mb - 0.00 in0.0 mm 0.00 in0.0 mm
06:15 AM 53.9°F12.2°C 42.8°F6.0°C 66% 2.3 mph W3.7 kmh W 3.5 mph5.6 kmh 29.82 in1009.8 mb - 0.00 in0.0 mm 0.00 in0.0 mm
06:00 AM 52.7°F11.5°C 40.8°F4.9°C 64% 1.2 mph W1.9 kmh W 2.3 mph3.7 kmh 29.82 in1009.8 mb - 0.00 in0.0 mm 0.00 in0.0 mm
05:45 AM 51.5°F10.8°C 40.2°F4.6°C 65% 2.3 mph W3.7 kmh W 3.5 mph5.6 kmh 29.82 in1009.8 mb - 0.00 in0.0 mm 0.00 in0.0 mm
05:30 AM 50.3°F10.2°C 39.8°F4.3°C 67% 3.5 mph WSW5.6 kmh WSW 3.5 mph5.6 kmh 29.82 in1009.8 mb - 0.00 in0.0 mm 0.00 in0.0 mm
05:15 AM 50.8°F10.4°C 39.8°F4.3°C 66% 2.3 mph W3.7 kmh W 3.5 mph5.6 kmh 29.83 in1010.2 mb - 0.00 in0.0 mm 0.00 in0.0 mm
05:00 AM 51.7°F10.9°C 39.5°F4.2°C 63% 2.3 mph W3.7 kmh W 3.5 mph5.6 kmh 29.83 in1010.2 mb - 0.00 in0.0 mm 0.00 in0.0 mm
04:45 AM 53.0°F11.7°C 39.0°F3.9°C 59% 9.2 mph WSW14.8 kmh WSW 11.5 mph18.5 kmh 29.82 in1009.8 mb - 0.00 in0.0 mm 0.00 in0.0 mm
04:30 AM 53.2°F11.8°C 38.4°F3.6°C 57% 9.2 mph W14.8 kmh W 12.7 mph20.4 kmh 29.82 in1009.8 mb - 0.00 in0.0 mm 0.00 in0.0 mm
04:15 AM 52.6°F11.4°C 38.2°F3.4°C 58% 5.8 mph WSW9.3 kmh WSW 9.2 mph14.8 kmh 29.82 in1009.8 mb - 0.00 in0.0 mm 0.00 in0.0 mm
04:00 AM 52.9°F11.6°C 37.7°F3.2°C 56% 6.9 mph WSW11.1 kmh WSW 11.5 mph18.5 kmh 29.82 in1009.8 mb - 0.00 in0.0 mm 0.00 in0.0 mm
03:45 AM 53.2°F11.8°C 37.0°F2.8°C 54% 6.9 mph WSW11.1 kmh WSW 10.4 mph16.7 kmh 29.82 in1009.8 mb - 0.00 in0.0 mm 0.00 in0.0 mm
03:30 AM 52.6°F11.4°C 36.4°F2.4°C 54% 8.1 mph WSW13.0 kmh WSW 10.4 mph16.7 kmh 29.82 in1009.8 mb - 0.00 in0.0 mm 0.00 in0.0 mm
03:15 AM 52.5°F11.4°C 36.8°F2.7°C 55% 3.5 mph WSW5.6 kmh WSW 3.5 mph5.6 kmh 29.82 in1009.8 mb - 0.00 in0.0 mm 0.00 in0.0 mm
03:00 AM 53.4°F11.9°C 37.2°F2.9°C 54% 3.5 mph W5.6 kmh W 4.6 mph7.4 kmh 29.80 in1009.1 mb - 0.00 in0.0 mm 0.00 in0.0 mm
02:45 AM 54.0°F12.2°C 36.3°F2.4°C 51% 10.4 mph WSW16.7 kmh WSW 13.8 mph22.2 kmh 29.80 in1009.1 mb - 0.00 in0.0 mm 0.00 in0.0 mm
02:30 AM 54.5°F12.5°C 36.8°F2.7°C 51% 10.4 mph WSW16.7 kmh WSW 12.7 mph20.4 kmh 29.80 in1009.1 mb - 0.00 in0.0 mm 0.00 in0.0 mm
02:15 AM 54.7°F12.6°C 36.9°F2.7°C 51% 10.4 mph WSW16.7 kmh WSW 11.5 mph18.5 kmh 29.80 in1009.1 mb - 0.00 in0.0 mm 0.00 in0.0 mm
02:00 AM 55.1°F12.8°C 36.8°F2.7°C 50% 10.4 mph WSW16.7 kmh WSW 12.7 mph20.4 kmh 29.80 in1009.1 mb - 0.00 in0.0 mm 0.00 in0.0 mm
01:45 AM 55.1°F12.8°C 37.3°F2.9°C 51% 10.4 mph WSW16.7 kmh WSW 11.5 mph18.5 kmh 29.80 in1009.1 mb - 0.00 in0.0 mm 0.00 in0.0 mm
01:30 AM 54.7°F12.6°C 37.4°F3.0°C 52% 9.2 mph WSW14.8 kmh WSW 11.5 mph18.5 kmh 29.80 in1009.1 mb - 0.00 in0.0 mm 0.00 in0.0 mm
01:15 AM 53.3°F11.8°C 38.4°F3.6°C 57% 9.2 mph WSW14.8 kmh WSW 10.4 mph16.7 kmh 29.81 in1009.5 mb - 0.00 in0.0 mm 0.00 in0.0 mm
01:00 AM 53.2°F11.8°C 39.6°F4.2°C 60% 3.5 mph WSW5.6 kmh WSW 4.6 mph7.4 kmh 29.81 in1009.5 mb - 0.00 in0.0 mm 0.00 in0.0 mm
12:45 AM 54.2°F12.3°C 39.7°F4.3°C 58% 4.6 mph SW7.4 kmh SW 5.8 mph9.3 kmh 29.81 in1009.5 mb - 0.00 in0.0 mm 0.00 in0.0 mm
12:30 AM 53.2°F11.8°C 40.1°F4.5°C 61% 5.8 mph WSW9.3 kmh WSW 6.9 mph11.1 kmh 29.82 in1009.8 mb - 0.00 in0.0 mm 0.00 in0.0 mm
12:15 AM 53.9°F12.2°C 40.3°F4.6°C 60% 4.6 mph SW7.4 kmh SW 5.8 mph9.3 kmh 29.82 in1009.8 mb - 0.00 in0.0 mm 0.00 in0.0 mm
12:00 AM 55.6°F13.1°C 41.0°F5.0°C 58% 4.6 mph SW7.4 kmh SW 5.8 mph9.3 kmh 29.82 in1009.8 mb - 0.00 in0.0 mm 0.00 in0.0 mm